createdAt,value
2023-05-16T00:01:30.185Z,97895.09
2023-05-16T00:04:19.869Z,97904.88
2023-05-16T00:07:07.302Z,97900.06
2023-05-16T00:09:57.219Z,97900.59
2023-05-16T00:12:44.982Z,97913.38
2023-05-16T00:15:33.304Z,97903.56
2023-05-16T00:18:22.124Z,97900.25
2023-05-16T00:21:11.191Z,97900.59
2023-05-16T00:23:58.796Z,97899.09
2023-05-16T00:26:46.543Z,97900.44
2023-05-16T00:29:34.140Z,97900.78
2023-05-16T00:32:21.860Z,97906.09
2023-05-16T00:35:11.806Z,97904.09
2023-05-16T00:38:01.229Z,97904.56
2023-05-16T00:40:54.976Z,97906.72
2023-05-16T00:43:42.821Z,97912.72
2023-05-16T00:46:30.396Z,97912.03
2023-05-16T00:49:18.012Z,97904.59
2023-05-16T00:52:06.631Z,97899.44
2023-05-16T00:54:55.578Z,97903.75
2023-05-16T00:57:45.280Z,97901.59
2023-05-16T01:00:33.303Z,97901.44
2023-05-16T01:03:21.528Z,97900.59
2023-05-16T01:06:09.531Z,97901.09
2023-05-16T01:08:57.030Z,97906.09
2023-05-16T01:11:57.612Z,97906.09
2023-05-16T01:15:01.653Z,97901.09
2023-05-16T01:18:01.995Z,97900.06
2023-05-16T01:20:57.963Z,97909.22
2023-05-16T01:23:58.696Z,97906.09
2023-05-16T01:26:49.185Z,97910.03
2023-05-16T01:29:36.864Z,97901.44
2023-05-16T01:32:24.828Z,97905.75
2023-05-16T01:35:17.199Z,97902.25
2023-05-16T01:38:16.291Z,97901.09
2023-05-16T01:41:12.531Z,97910.72
2023-05-16T01:44:17.219Z,97908.91
2023-05-16T01:47:16.470Z,97912.72
2023-05-16T01:50:11.275Z,97911.06
2023-05-16T01:53:04.773Z,97916.38
2023-05-16T01:55:55.981Z,97914.03
2023-05-16T01:58:47.080Z,97914.38
2023-05-16T02:01:36.607Z,97917.19
2023-05-16T02:04:24.596Z,97914.69
2023-05-16T02:07:12.770Z,97921.66
2023-05-16T02:10:00.547Z,97919.69
2023-05-16T02:12:48.070Z,97920.69
2023-05-16T02:15:35.542Z,97925.16
2023-05-16T02:18:24.615Z,97920.34
2023-05-16T02:21:12.312Z,97922.34
2023-05-16T02:23:59.954Z,97926.16
2023-05-16T02:26:47.522Z,97926.31
2023-05-16T02:29:34.976Z,97920.50
2023-05-16T02:32:22.735Z,97920.19
2023-05-16T02:35:12.414Z,97931.94
2023-05-16T02:38:02.024Z,97926.47
2023-05-16T02:40:49.516Z,97927.97
2023-05-16T02:43:37.206Z,97920.63
2023-05-16T02:46:27.838Z,97925.59
2023-05-16T02:49:15.589Z,97914.94
2023-05-16T02:52:04.900Z,97915.09
2023-05-16T02:57:42.974Z,97922.06
2023-05-16T03:00:31.719Z,97920.41
2023-05-16T03:03:19.578Z,97919.03
2023-05-16T03:06:07.685Z,97916.88
2023-05-16T03:08:56.533Z,97921.53
2023-05-16T03:11:44.273Z,97908.25
2023-05-16T03:14:31.780Z,97913.41
2023-05-16T03:17:19.307Z,97915.38
2023-05-16T03:20:09.101Z,97915.53
2023-05-16T03:22:56.505Z,97921.16
2023-05-16T03:25:46.303Z,97918.81
2023-05-16T03:28:34.059Z,97927.63
2023-05-16T03:31:21.807Z,97931.28
2023-05-16T03:34:09.734Z,97931.13
2023-05-16T03:36:57.418Z,97935.44
2023-05-16T03:39:45.352Z,97937.09
2023-05-16T03:42:34.403Z,97942.41
2023-05-16T03:45:22.118Z,97953.00
2023-05-16T03:48:10.878Z,97948.69
2023-05-16T03:50:58.625Z,97960.00
2023-05-16T03:53:46.079Z,97973.28
2023-05-16T03:56:33.618Z,97977.75
2023-05-16T03:59:23.028Z,97988.38
2023-05-16T04:02:10.968Z,97986.66
2023-05-16T04:04:59.259Z,97989.00
2023-05-16T04:07:46.929Z,97989.22
2023-05-16T04:10:34.373Z,97990.81
2023-05-16T04:13:21.956Z,97985.50
2023-05-16T04:16:10.875Z,97988.16
2023-05-16T04:18:59.394Z,97978.44
2023-05-16T04:21:46.953Z,97979.94
2023-05-16T04:24:34.723Z,97975.69
2023-05-16T04:27:22.524Z,97976.72
2023-05-16T04:30:12.414Z,97976.41
2023-05-16T04:33:01.512Z,97973.75
2023-05-16T04:35:49.752Z,97977.91
2023-05-16T04:38:46.796Z,97980.22
2023-05-16T04:41:36.045Z,97973.75
2023-05-16T04:44:23.618Z,97976.09
2023-05-16T04:47:11.242Z,97982.09
2023-05-16T04:50:00.046Z,97980.59
2023-05-16T04:52:47.635Z,97988.09
2023-05-16T04:55:35.389Z,97984.78
2023-05-16T04:58:24.240Z,97976.31
2023-05-16T05:01:11.699Z,97979.31
2023-05-16T05:03:59.376Z,97984.97
2023-05-16T05:06:48.605Z,97981.81
2023-05-16T05:09:36.221Z,97985.81
2023-05-16T05:12:24.031Z,97988.16
2023-05-16T05:15:11.856Z,97993.97
2023-05-16T05:18:00.036Z,97994.47
2023-05-16T05:20:48.166Z,98001.28
2023-05-16T05:23:36.965Z,97992.16
2023-05-16T05:26:26.050Z,97991.66
2023-05-16T05:29:13.854Z,97995.97
2023-05-16T05:32:01.483Z,98003.47
2023-05-16T05:34:49.434Z,98001.16
2023-05-16T05:37:37.249Z,98002.47
2023-05-16T05:40:26.221Z,98011.59
2023-05-16T05:43:13.970Z,98016.25
2023-05-16T05:46:01.631Z,98006.09
2023-05-16T05:48:49.235Z,98012.59
2023-05-16T05:51:39.262Z,98011.09
2023-05-16T05:54:28.822Z,98005.75
2023-05-16T05:57:17.946Z,97999.78
2023-05-16T06:00:07.139Z,98005.25
2023-05-16T06:02:55.164Z,97995.44
2023-05-16T06:05:45.195Z,98001.59
2023-05-16T06:08:33.229Z,97995.41
2023-05-16T06:11:29.179Z,97998.22
2023-05-16T06:14:18.900Z,98001.81
2023-05-16T06:17:07.094Z,98006.91
2023-05-16T06:19:54.741Z,97996.69
2023-05-16T06:22:42.132Z,98002.78
2023-05-16T06:25:36.295Z,97994.97
2023-05-16T06:28:24.118Z,97989.84
2023-05-16T06:31:13.410Z,97985.88
2023-05-16T06:34:01.162Z,97983.56
2023-05-16T06:36:49.062Z,97993.16
2023-05-16T06:39:36.757Z,97991.69
2023-05-16T06:42:24.267Z,97994.19
2023-05-16T06:45:12.770Z,97984.72
2023-05-16T06:48:05.622Z,97990.53
2023-05-16T06:50:56.419Z,97993.75
2023-05-16T06:53:43.824Z,97995.03
2023-05-16T06:56:39.869Z,97991.44
2023-05-16T06:59:28.216Z,97992.09
2023-05-16T07:02:15.905Z,97987.00
2023-05-16T07:05:08.909Z,97994.94
2023-05-16T07:07:56.592Z,97998.88
2023-05-16T07:10:44.588Z,97999.41
2023-05-16T07:13:33.761Z,98008.06
2023-05-16T07:16:24.283Z,97997.56
2023-05-16T07:19:11.776Z,98004.97
2023-05-16T07:22:00.795Z,98007.19
2023-05-16T07:24:48.743Z,98002.38
2023-05-16T07:27:39.323Z,98004.59
2023-05-16T07:30:27.216Z,97997.72
2023-05-16T07:33:15.022Z,98000.75
2023-05-16T07:36:15.561Z,97999.19
2023-05-16T07:39:06.887Z,98005.69
2023-05-16T07:41:54.412Z,98002.34
2023-05-16T07:44:42.092Z,97987.09
2023-05-16T07:47:29.805Z,97992.31
2023-05-16T07:50:17.898Z,97994.63
2023-05-16T07:53:05.773Z,97990.47
2023-05-16T07:55:54.931Z,97988.75
2023-05-16T07:58:43.936Z,97998.66
2023-05-16T08:01:32.097Z,97991.50
2023-05-16T08:04:20.125Z,97987.09
2023-05-16T08:07:07.898Z,97990.44
2023-05-16T08:09:55.566Z,97996.84
2023-05-16T08:12:44.592Z,97993.47
2023-05-16T08:15:32.575Z,97998.66
2023-05-16T08:18:22.258Z,98005.09
2023-05-16T08:21:10.434Z,98004.03
2023-05-16T08:23:58.312Z,98005.03
2023-05-16T08:26:45.933Z,98006.22
2023-05-16T08:29:37.938Z,98002.69
2023-05-16T08:32:25.521Z,98007.94
2023-05-16T08:35:13.611Z,98003.31
2023-05-16T08:38:01.128Z,98009.06
2023-05-16T08:40:48.691Z,98018.97
2023-05-16T08:43:36.736Z,98016.53
2023-05-16T08:46:27.752Z,98022.75
2023-05-16T08:49:19.549Z,98023.81
2023-05-16T08:52:11.398Z,98026.53
2023-05-16T08:57:54.035Z,98032.41
2023-05-16T09:00:42.332Z,98030.81
2023-05-16T09:03:32.177Z,98025.91
2023-05-16T09:06:19.965Z,98031.34
2023-05-16T09:09:08.311Z,98035.06
2023-05-16T09:11:56.020Z,98028.47
2023-05-16T09:14:51.411Z,98023.31
2023-05-16T09:17:43.572Z,98032.41
2023-05-16T09:20:32.674Z,98033.03
2023-05-16T09:23:25.947Z,98033.47
2023-05-16T09:26:13.688Z,98041.75
2023-05-16T09:29:01.747Z,98045.88
2023-05-16T09:31:51.419Z,98041.94
2023-05-16T09:34:48.911Z,98052.09
2023-05-16T09:37:37.836Z,98038.00
2023-05-16T09:40:25.710Z,98038.44
2023-05-16T09:43:18.296Z,98042.56
2023-05-16T09:46:06.518Z,98050.63
2023-05-16T09:48:54.199Z,98053.94
2023-05-16T09:51:42.716Z,98051.66
2023-05-16T09:54:36.277Z,98057.47
2023-05-16T09:57:27.056Z,98054.34
2023-05-16T10:00:16.149Z,98053.31
2023-05-16T10:03:05.885Z,98058.50
2023-05-16T10:05:55.051Z,98057.03
2023-05-16T10:08:44.652Z,98052.94
2023-05-16T10:11:34.097Z,98052.09
2023-05-16T10:14:24.383Z,98056.00
2023-05-16T10:17:16.994Z,98049.16
2023-05-16T10:20:09.456Z,98042.16
2023-05-16T10:22:59.524Z,98039.47
2023-05-16T10:25:49.549Z,98038.00
2023-05-16T10:28:41.192Z,98035.91
2023-05-16T10:31:30.405Z,98029.50
2023-05-16T10:34:19.482Z,98021.63
2023-05-16T10:37:08.314Z,98018.94
2023-05-16T10:39:56.858Z,98013.19
2023-05-16T10:42:58.740Z,98010.47
2023-05-16T10:45:56.578Z,98004.88
2023-05-16T10:48:44.415Z,98004.88
2023-05-16T10:51:38.733Z,98009.00
2023-05-16T10:54:40.417Z,98004.44
2023-05-16T10:57:28.242Z,97994.81
2023-05-16T11:00:24.066Z,98007.59
2023-05-16T11:03:28.507Z,98009.59
2023-05-16T11:06:24.918Z,98007.03
2023-05-16T11:09:28.429Z,98012.31
2023-05-16T11:12:16.138Z,98022.00
2023-05-16T11:15:19.352Z,98015.91
2023-05-16T11:18:09.267Z,98016.25
2023-05-16T11:21:05.755Z,98003.75
2023-05-16T11:24:30.533Z,98008.28
2023-05-16T11:27:24.453Z,98015.59
2023-05-16T11:30:19.281Z,98009.88
2023-05-16T11:33:09.093Z,98026.50
2023-05-16T11:39:09.510Z,98025.63
2023-05-16T11:41:57.912Z,98039.31
2023-05-16T11:44:46.273Z,98038.50
2023-05-16T11:47:34.147Z,98036.94
2023-05-16T11:50:23.848Z,98038.63
2023-05-16T11:53:14.203Z,98039.06
2023-05-16T11:56:02.276Z,98030.59
2023-05-16T11:58:50.877Z,98031.41
2023-05-16T12:01:40.704Z,98029.16
2023-05-16T12:04:29.811Z,98038.06
2023-05-16T12:07:17.997Z,98032.31
2023-05-16T12:10:08.912Z,98032.94
2023-05-16T12:12:59.395Z,98028.88
2023-05-16T12:15:48.106Z,98027.19
2023-05-16T12:18:41.222Z,98032.16
2023-05-16T12:21:31.074Z,98031.63
2023-05-16T12:24:18.976Z,98023.81
2023-05-16T12:27:10.218Z,98030.19
2023-05-16T12:30:00.298Z,98030.03
2023-05-16T12:32:53.505Z,98021.00
2023-05-16T12:35:43.718Z,98014.31
2023-05-16T12:38:32.043Z,98019.94
2023-05-16T12:41:21.534Z,98022.22
2023-05-16T12:44:14.509Z,98025.13
2023-05-16T12:47:03.921Z,98029.59
2023-05-16T12:49:51.618Z,98035.22
2023-05-16T12:52:39.353Z,98037.38
2023-05-16T12:55:27.536Z,98037.66
2023-05-16T12:58:16.505Z,98030.03
2023-05-16T13:01:05.835Z,98037.38
2023-05-16T13:03:53.769Z,98047.75
2023-05-16T13:09:41.794Z,98041.19
2023-05-16T13:12:30.098Z,98037.25
2023-05-16T13:15:18.065Z,98066.03
2023-05-16T13:18:07.215Z,98067.69
2023-05-16T13:20:55.074Z,98068.22
2023-05-16T13:23:42.647Z,98066.94
2023-05-16T13:26:30.407Z,98064.22
2023-05-16T13:29:18.282Z,98068.38
2023-05-16T13:32:07.615Z,98071.19
2023-05-16T13:34:56.658Z,98072.94
2023-05-16T13:37:44.508Z,98079.34
2023-05-16T13:40:32.936Z,98079.22
2023-05-16T13:43:20.908Z,98080.09
2023-05-16T13:46:08.641Z,98080.09
2023-05-16T13:48:56.563Z,98086.72
2023-05-16T13:51:45.556Z,98091.50
2023-05-16T13:54:33.601Z,98094.13
2023-05-16T13:57:23.937Z,98093.06
2023-05-16T14:00:42.746Z,98099.84
2023-05-16T14:03:27.158Z,98098.25
2023-05-16T14:06:15.082Z,98106.56
2023-05-16T14:09:04.557Z,98101.34
2023-05-16T14:11:52.686Z,98105.78
2023-05-16T14:14:40.489Z,98104.38
2023-05-16T14:17:28.185Z,98125.44
2023-05-16T14:20:15.953Z,98110.28
2023-05-16T14:23:04.158Z,98116.41
2023-05-16T14:25:53.320Z,98119.41
2023-05-16T14:28:43.714Z,98131.03
2023-05-16T14:31:33.164Z,98125.81
2023-05-16T14:34:22.318Z,98121.63
2023-05-16T14:37:19.142Z,98130.56
2023-05-16T14:40:10.389Z,98122.22
2023-05-16T14:42:59.863Z,98121.06
2023-05-16T14:45:47.611Z,98122.06
2023-05-16T14:48:35.387Z,98126.81
2023-05-16T14:51:23.304Z,98134.28
2023-05-16T14:54:17.079Z,98138.66
2023-05-16T14:57:05.383Z,98141.81
2023-05-16T14:59:54.749Z,98141.50
2023-05-16T15:02:42.451Z,98142.00
2023-05-16T15:05:30.606Z,98145.38
2023-05-16T15:08:18.455Z,98153.47
2023-05-16T15:11:06.463Z,98150.00
2023-05-16T15:13:54.418Z,98153.34
2023-05-16T15:16:43.956Z,98148.44
2023-05-16T15:19:31.905Z,98160.06
2023-05-16T15:22:20.316Z,98161.75
2023-05-16T15:25:10.352Z,98157.19
2023-05-16T15:27:58.202Z,98156.16
2023-05-16T15:30:45.914Z,98162.75
2023-05-16T15:33:34.682Z,98171.88
2023-05-16T15:36:25.035Z,98177.44
2023-05-16T15:39:12.745Z,98181.56
2023-05-16T15:42:09.108Z,98185.44
2023-05-16T15:44:57.108Z,98183.56
2023-05-16T15:47:44.708Z,98179.72
2023-05-16T15:50:33.775Z,98180.94
2023-05-16T15:53:21.935Z,98179.47
2023-05-16T15:56:10.771Z,98175.03
2023-05-16T15:58:58.685Z,98178.69
2023-05-16T16:01:46.399Z,98177.81
2023-05-16T16:04:35.374Z,98183.72
2023-05-16T16:07:24.775Z,98189.25
2023-05-16T16:10:13.484Z,98182.09
2023-05-16T16:13:01.643Z,98184.94
2023-05-16T16:15:49.503Z,98189.41
2023-05-16T16:18:37.423Z,98199.44
2023-05-16T16:21:25.969Z,98197.00
2023-05-16T16:24:15.236Z,98204.38
2023-05-16T16:27:04.280Z,98209.22
2023-05-16T16:29:51.987Z,98218.59
2023-05-16T16:32:39.937Z,98215.84
2023-05-16T16:35:27.971Z,98216.72
2023-05-16T16:38:17.530Z,98213.97
2023-05-16T16:41:06.413Z,98214.41
2023-05-16T16:43:54.228Z,98212.66
2023-05-16T16:46:41.912Z,98216.31
2023-05-16T16:49:31.331Z,98220.53
2023-05-16T16:52:19.109Z,98226.56
2023-05-16T16:55:07.836Z,98226.06
2023-05-16T16:57:57.332Z,98236.53
2023-05-16T17:00:45.552Z,98231.00
2023-05-16T17:03:33.453Z,98231.25
2023-05-16T17:06:21.475Z,98239.81
2023-05-16T17:09:13.740Z,98248.88
2023-05-16T17:12:04.610Z,98253.09
2023-05-16T17:14:53.690Z,98258.50
2023-05-16T17:17:41.498Z,98272.06
2023-05-16T17:20:29.139Z,98269.84
2023-05-16T17:23:16.764Z,98274.94
2023-05-16T17:26:04.458Z,98282.28
2023-05-16T17:28:52.681Z,98280.28
2023-05-16T17:31:41.520Z,98284.47
2023-05-16T17:34:29.589Z,98285.69
2023-05-16T17:37:17.460Z,98291.91
2023-05-16T17:40:10.011Z,98302.50
2023-05-16T17:42:57.863Z,98298.16
2023-05-16T17:45:45.234Z,98306.16
2023-05-16T17:48:34.136Z,98303.56
2023-05-16T17:51:21.996Z,98307.41
2023-05-16T17:54:09.537Z,98314.09
2023-05-16T17:56:57.828Z,98310.31
2023-05-16T17:59:45.094Z,98324.34
2023-05-16T18:02:32.912Z,98326.34
2023-05-16T18:05:23.159Z,98319.19
2023-05-16T18:08:10.719Z,98320.03
2023-05-16T18:10:58.768Z,98327.72
2023-05-16T18:13:46.498Z,98326.75
2023-05-16T18:16:34.553Z,98324.09
2023-05-16T18:19:22.326Z,98325.81
2023-05-16T18:22:13.128Z,98337.16
2023-05-16T18:25:00.752Z,98333.16
2023-05-16T18:27:48.280Z,98336.50
2023-05-16T18:30:38.277Z,98335.19
2023-05-16T18:33:26.340Z,98331.72
2023-05-16T18:36:13.908Z,98334.91
2023-05-16T18:39:02.947Z,98337.91
2023-05-16T18:41:50.968Z,98326.56
2023-05-16T18:44:38.853Z,98340.41
2023-05-16T18:47:26.304Z,98340.94
2023-05-16T18:50:14.224Z,98347.28
2023-05-16T18:53:01.835Z,98350.81
2023-05-16T18:55:51.543Z,98347.84
2023-05-16T18:58:39.120Z,98348.69
2023-05-16T19:01:26.728Z,98362.16
2023-05-16T19:04:14.507Z,98354.00
2023-05-16T19:07:04.393Z,98356.00
2023-05-16T19:09:52.866Z,98364.34
2023-05-16T19:12:46.714Z,98367.84
2023-05-16T19:15:35.270Z,98373.84
2023-05-16T19:18:22.902Z,98364.69
2023-05-16T19:21:13.167Z,98372.00
2023-05-16T19:24:01.165Z,98378.66
2023-05-16T19:26:48.888Z,98370.34
2023-05-16T19:29:37.856Z,98376.00
2023-05-16T19:32:26.081Z,98376.50
2023-05-16T19:35:14.061Z,98383.34
2023-05-16T19:38:01.764Z,98386.97
2023-05-16T19:40:49.396Z,98389.28
2023-05-16T19:43:49.658Z,98395.28
2023-05-16T19:46:39.241Z,98391.63
2023-05-16T19:49:26.826Z,98396.22
2023-05-16T19:52:16.042Z,98401.53
2023-05-16T19:55:04.673Z,98410.19
2023-05-16T19:57:52.423Z,98409.97
2023-05-16T20:00:40.246Z,98425.69
2023-05-16T20:03:29.586Z,98413.84
2023-05-16T20:06:17.660Z,98424.16
2023-05-16T20:09:06.100Z,98432.09
2023-05-16T20:11:54.215Z,98437.53
2023-05-16T20:14:42.064Z,98443.16
2023-05-16T20:17:29.734Z,98444.41
2023-05-16T20:20:18.989Z,98454.00
2023-05-16T20:23:06.523Z,98456.91
2023-05-16T20:25:53.980Z,98449.53
2023-05-16T20:29:09.095Z,98455.41
2023-05-16T20:31:56.905Z,98457.97
2023-05-16T20:34:50.104Z,98451.09
2023-05-16T20:37:39.877Z,98458.38
2023-05-16T20:40:27.557Z,98460.13
2023-05-16T20:43:15.120Z,98458.78
2023-05-16T20:46:02.909Z,98460.78
2023-05-16T20:48:50.531Z,98462.00
2023-05-16T20:51:38.039Z,98469.88
2023-05-16T20:54:27.049Z,98471.00
2023-05-16T20:57:14.922Z,98478.28
2023-05-16T21:00:02.544Z,98474.09
2023-05-16T21:02:50.119Z,98477.19
2023-05-16T21:05:38.091Z,98478.63
2023-05-16T21:08:26.192Z,98478.06
2023-05-16T21:11:15.056Z,98482.84
2023-05-16T21:14:28.282Z,98471.09
2023-05-16T21:17:15.951Z,98472.75
2023-05-16T21:20:03.784Z,98480.84
2023-05-16T21:22:51.324Z,98495.16
2023-05-16T21:25:38.931Z,98499.66
2023-05-16T21:28:28.222Z,98499.59
2023-05-16T21:31:15.715Z,98495.00
2023-05-16T21:34:03.166Z,98495.72
2023-05-16T21:36:51.157Z,98496.97
2023-05-16T21:39:38.786Z,98497.56
2023-05-16T21:42:26.421Z,98508.75
2023-05-16T21:45:16.550Z,98514.63
2023-05-16T21:48:13.809Z,98519.66
2023-05-16T21:51:01.291Z,98516.47
2023-05-16T21:53:48.868Z,98514.38
2023-05-16T21:56:36.616Z,98521.59
2023-05-16T21:59:25.592Z,98524.84
2023-05-16T22:02:33.477Z,98530.97
2023-05-16T22:05:21.056Z,98525.53
2023-05-16T22:08:08.894Z,98526.91
2023-05-16T22:10:56.579Z,98530.53
2023-05-16T22:13:44.142Z,98533.47
2023-05-16T22:16:31.682Z,98528.88
2023-05-16T22:19:20.621Z,98532.78
2023-05-16T22:22:08.658Z,98538.63
2023-05-16T22:24:56.451Z,98542.81
2023-05-16T22:27:45.631Z,98539.44
2023-05-16T22:30:34.099Z,98549.78
2023-05-16T22:33:23.680Z,98552.56
2023-05-16T22:36:13.130Z,98553.97
2023-05-16T22:39:03.739Z,98553.53
2023-05-16T22:41:52.128Z,98558.53
2023-05-16T22:44:40.099Z,98559.25
2023-05-16T22:47:29.418Z,98560.06
2023-05-16T22:50:18.260Z,98561.38
2023-05-16T22:53:07.724Z,98565.81
2023-05-16T22:55:57.225Z,98567.34
2023-05-16T22:58:46.065Z,98578.06
2023-05-16T23:01:34.044Z,98578.06
2023-05-16T23:04:24.078Z,98584.19
2023-05-16T23:07:12.283Z,98578.50
2023-05-16T23:10:04.050Z,98579.19
2023-05-16T23:12:52.073Z,98574.88
2023-05-16T23:15:40.422Z,98578.91
2023-05-16T23:18:28.992Z,98588.84
2023-05-16T23:21:17.534Z,98592.28
2023-05-16T23:24:05.938Z,98590.59
2023-05-16T23:26:55.680Z,98600.09
2023-05-16T23:29:43.340Z,98609.81
2023-05-16T23:32:31.848Z,98610.88
2023-05-16T23:35:20.176Z,98609.72
2023-05-16T23:38:08.335Z,98606.41
2023-05-16T23:40:56.686Z,98611.09
2023-05-16T23:43:46.380Z,98612.47
2023-05-16T23:46:34.557Z,98610.50
2023-05-16T23:49:22.706Z,98611.50
2023-05-16T23:52:11.672Z,98616.38
2023-05-16T23:55:01.848Z,98618.88
2023-05-16T23:57:50.009Z,98624.03
